sensor_id;sensor_type;location;lat;lon;timestamp;P1;durP1;ratioP1;P2;durP2;ratioP2
74245;SDS011;62601;51.044;13.788;2022-11-18T00:02:13;13.85;;;11.50;;
74245;SDS011;62601;51.044;13.788;2022-11-18T00:04:35;16.45;;;12.00;;
74245;SDS011;62601;51.044;13.788;2022-11-18T00:06:56;19.05;;;12.23;;
74245;SDS011;62601;51.044;13.788;2022-11-18T00:09:16;16.25;;;11.40;;
74245;SDS011;62601;51.044;13.788;2022-11-18T00:11:38;15.80;;;12.43;;
74245;SDS011;62601;51.044;13.788;2022-11-18T00:13:59;15.68;;;11.32;;
74245;SDS011;62601;51.044;13.788;2022-11-18T00:16:21;14.48;;;11.82;;
74245;SDS011;62601;51.044;13.788;2022-11-18T00:18:42;17.95;;;12.68;;
74245;SDS011;62601;51.044;13.788;2022-11-18T00:21:05;16.70;;;12.70;;
74245;SDS011;62601;51.044;13.788;2022-11-18T00:23:30;17.80;;;12.73;;
74245;SDS011;62601;51.044;13.788;2022-11-18T00:25:51;15.50;;;12.23;;
74245;SDS011;62601;51.044;13.788;2022-11-18T00:28:12;15.90;;;12.35;;
74245;SDS011;62601;51.044;13.788;2022-11-18T00:30:34;16.23;;;12.80;;
74245;SDS011;62601;51.044;13.788;2022-11-18T00:32:55;17.38;;;12.20;;
74245;SDS011;62601;51.044;13.788;2022-11-18T00:35:16;16.10;;;11.88;;
74245;SDS011;62601;51.044;13.788;2022-11-18T00:37:38;17.00;;;12.30;;
74245;SDS011;62601;51.044;13.788;2022-11-18T00:39:59;17.35;;;12.65;;
74245;SDS011;62601;51.044;13.788;2022-11-18T00:42:21;16.95;;;12.85;;
74245;SDS011;62601;51.044;13.788;2022-11-18T00:44:43;16.92;;;12.68;;
74245;SDS011;62601;51.044;13.788;2022-11-18T00:47:04;17.27;;;12.95;;
74245;SDS011;62601;51.044;13.788;2022-11-18T00:49:26;18.30;;;13.00;;
74245;SDS011;62601;51.044;13.788;2022-11-18T00:51:47;19.25;;;13.95;;
74245;SDS011;62601;51.044;13.788;2022-11-18T00:54:08;16.98;;;12.90;;
74245;SDS011;62601;51.044;13.788;2022-11-18T00:56:30;16.58;;;12.32;;
74245;SDS011;62601;51.044;13.788;2022-11-18T00:58:51;16.90;;;12.38;;
74245;SDS011;62601;51.044;13.788;2022-11-18T01:01:12;16.25;;;12.60;;
74245;SDS011;62601;51.044;13.788;2022-11-18T01:03:34;16.30;;;12.52;;
74245;SDS011;62601;51.044;13.788;2022-11-18T01:05:55;21.40;;;12.88;;
74245;SDS011;62601;51.044;13.788;2022-11-18T01:08:17;16.55;;;12.38;;
74245;SDS011;62601;51.044;13.788;2022-11-18T01:10:39;14.63;;;11.82;;
74245;SDS011;62601;51.044;13.788;2022-11-18T01:13:00;17.98;;;13.50;;
74245;SDS011;62601;51.044;13.788;2022-11-18T01:15:21;16.45;;;12.40;;
74245;SDS011;62601;51.044;13.788;2022-11-18T01:17:43;17.88;;;13.13;;
74245;SDS011;62601;51.044;13.788;2022-11-18T01:20:04;16.70;;;12.50;;
74245;SDS011;62601;51.044;13.788;2022-11-18T01:22:26;17.65;;;12.75;;
74245;SDS011;62601;51.044;13.788;2022-11-18T01:24:47;17.88;;;13.35;;
74245;SDS011;62601;51.044;13.788;2022-11-18T01:27:08;17.98;;;12.52;;
74245;SDS011;62601;51.044;13.788;2022-11-18T01:29:30;18.55;;;13.77;;
74245;SDS011;62601;51.044;13.788;2022-11-18T01:31:51;18.02;;;12.02;;
74245;SDS011;62601;51.044;13.788;2022-11-18T01:34:13;18.70;;;12.88;;
74245;SDS011;62601;51.044;13.788;2022-11-18T01:36:35;18.10;;;12.57;;
74245;SDS011;62601;51.044;13.788;2022-11-18T01:38:56;17.35;;;12.77;;
74245;SDS011;62601;51.044;13.788;2022-11-18T01:41:18;14.73;;;12.32;;
74245;SDS011;62601;51.044;13.788;2022-11-18T01:46:22;17.10;;;12.70;;
74245;SDS011;62601;51.044;13.788;2022-11-18T01:48:49;18.33;;;12.80;;
74245;SDS011;62601;51.044;13.788;2022-11-18T01:51:31;18.65;;;12.10;;
74245;SDS011;62601;51.044;13.788;2022-11-18T01:53:58;19.60;;;13.63;;
74245;SDS011;62601;51.044;13.788;2022-11-18T01:56:21;18.20;;;12.57;;
74245;SDS011;62601;51.044;13.788;2022-11-18T01:58:48;17.80;;;12.18;;
74245;SDS011;62601;51.044;13.788;2022-11-18T02:01:12;19.17;;;12.30;;
74245;SDS011;62601;51.044;13.788;2022-11-18T02:03:34;17.40;;;13.07;;
74245;SDS011;62601;51.044;13.788;2022-11-18T02:05:56;19.27;;;12.65;;
74245;SDS011;62601;51.044;13.788;2022-11-18T02:08:28;16.63;;;12.25;;
74245;SDS011;62601;51.044;13.788;2022-11-18T02:10:50;17.35;;;12.73;;
74245;SDS011;62601;51.044;13.788;2022-11-18T02:13:11;17.05;;;12.57;;
74245;SDS011;62601;51.044;13.788;2022-11-18T02:15:45;17.17;;;13.25;;
74245;SDS011;62601;51.044;13.788;2022-11-18T02:31:30;16.60;;;11.10;;
74245;SDS011;62601;51.044;13.788;2022-11-18T02:39:16;17.77;;;12.80;;
74245;SDS011;62601;51.044;13.788;2022-11-18T02:41:40;16.38;;;12.00;;
74245;SDS011;62601;51.044;13.788;2022-11-18T02:44:07;17.13;;;12.15;;
74245;SDS011;62601;51.044;13.788;2022-11-18T02:46:31;16.17;;;11.85;;
74245;SDS011;62601;51.044;13.788;2022-11-18T02:48:55;16.50;;;11.82;;
74245;SDS011;62601;51.044;13.788;2022-11-18T02:51:18;15.07;;;11.68;;
74245;SDS011;62601;51.044;13.788;2022-11-18T02:53:39;17.05;;;11.68;;
74245;SDS011;62601;51.044;13.788;2022-11-18T02:56:02;17.17;;;11.52;;
74245;SDS011;62601;51.044;13.788;2022-11-18T02:58:23;16.25;;;11.45;;
74245;SDS011;62601;51.044;13.788;2022-11-18T03:00:56;16.13;;;11.68;;
74245;SDS011;62601;51.044;13.788;2022-11-18T03:03:23;16.60;;;12.40;;
74245;SDS011;62601;51.044;13.788;2022-11-18T03:05:50;18.08;;;12.85;;
74245;SDS011;62601;51.044;13.788;2022-11-18T03:08:14;15.68;;;12.05;;
74245;SDS011;62601;51.044;13.788;2022-11-18T03:10:48;18.77;;;12.80;;
74245;SDS011;62601;51.044;13.788;2022-11-18T03:13:23;15.40;;;11.75;;
74245;SDS011;62601;51.044;13.788;2022-11-18T03:15:59;15.98;;;10.93;;
74245;SDS011;62601;51.044;13.788;2022-11-18T03:18:31;17.45;;;11.93;;
74245;SDS011;62601;51.044;13.788;2022-11-18T03:23:58;19.23;;;12.15;;
74245;SDS011;62601;51.044;13.788;2022-11-18T03:26:20;16.42;;;11.60;;
74245;SDS011;62601;51.044;13.788;2022-11-18T03:28:45;16.05;;;12.07;;
74245;SDS011;62601;51.044;13.788;2022-11-18T03:31:19;16.88;;;11.32;;
74245;SDS011;62601;51.044;13.788;2022-11-18T03:33:46;15.50;;;11.25;;
74245;SDS011;62601;51.044;13.788;2022-11-18T03:36:08;16.50;;;11.73;;
74245;SDS011;62601;51.044;13.788;2022-11-18T03:38:32;15.57;;;11.25;;
74245;SDS011;62601;51.044;13.788;2022-11-18T03:41:05;15.65;;;11.15;;
74245;SDS011;62601;51.044;13.788;2022-11-18T03:43:28;16.00;;;11.82;;
74245;SDS011;62601;51.044;13.788;2022-11-18T03:45:56;15.27;;;10.68;;
74245;SDS011;62601;51.044;13.788;2022-11-18T03:48:24;14.55;;;11.07;;
74245;SDS011;62601;51.044;13.788;2022-11-18T03:50:55;12.90;;;10.00;;
74245;SDS011;62601;51.044;13.788;2022-11-18T03:53:18;15.90;;;10.77;;
74245;SDS011;62601;51.044;13.788;2022-11-18T03:55:41;15.77;;;11.68;;
74245;SDS011;62601;51.044;13.788;2022-11-18T03:58:11;13.73;;;10.82;;
74245;SDS011;62601;51.044;13.788;2022-11-18T04:00:40;15.07;;;10.60;;
74245;SDS011;62601;51.044;13.788;2022-11-18T04:03:03;14.45;;;10.40;;
74245;SDS011;62601;51.044;13.788;2022-11-18T04:05:24;14.52;;;10.95;;
74245;SDS011;62601;51.044;13.788;2022-11-18T04:07:59;14.57;;;10.63;;
74245;SDS011;62601;51.044;13.788;2022-11-18T04:10:28;15.07;;;10.77;;
74245;SDS011;62601;51.044;13.788;2022-11-18T04:13:14;17.23;;;11.75;;
74245;SDS011;62601;51.044;13.788;2022-11-18T04:15:37;19.83;;;13.45;;
74245;SDS011;62601;51.044;13.788;2022-11-18T04:17:58;18.35;;;12.57;;
74245;SDS011;62601;51.044;13.788;2022-11-18T04:20:20;20.30;;;14.50;;
74245;SDS011;62601;51.044;13.788;2022-11-18T04:22:40;18.40;;;14.35;;
74245;SDS011;62601;51.044;13.788;2022-11-18T04:25:02;20.73;;;14.55;;
74245;SDS011;62601;51.044;13.788;2022-11-18T04:27:23;22.10;;;16.00;;
74245;SDS011;62601;51.044;13.788;2022-11-18T04:29:45;22.25;;;16.48;;
74245;SDS011;62601;51.044;13.788;2022-11-18T04:32:06;21.65;;;15.32;;
74245;SDS011;62601;51.044;13.788;2022-11-18T04:34:28;21.83;;;14.95;;
74245;SDS011;62601;51.044;13.788;2022-11-18T04:36:49;21.77;;;15.00;;
74245;SDS011;62601;51.044;13.788;2022-11-18T04:39:11;19.63;;;14.35;;
74245;SDS011;62601;51.044;13.788;2022-11-18T04:41:32;19.65;;;13.98;;
74245;SDS011;62601;51.044;13.788;2022-11-18T04:43:53;25.75;;;14.93;;
74245;SDS011;62601;51.044;13.788;2022-11-18T04:46:14;19.50;;;14.55;;
74245;SDS011;62601;51.044;13.788;2022-11-18T04:48:36;21.98;;;15.35;;
74245;SDS011;62601;51.044;13.788;2022-11-18T04:50:57;23.15;;;16.00;;
74245;SDS011;62601;51.044;13.788;2022-11-18T04:53:22;18.98;;;15.00;;
74245;SDS011;62601;51.044;13.788;2022-11-18T04:55:44;23.83;;;16.05;;
74245;SDS011;62601;51.044;13.788;2022-11-18T04:58:05;20.27;;;15.57;;
74245;SDS011;62601;51.044;13.788;2022-11-18T05:00:27;23.83;;;16.50;;
74245;SDS011;62601;51.044;13.788;2022-11-18T05:02:48;23.50;;;15.95;;
74245;SDS011;62601;51.044;13.788;2022-11-18T05:05:09;28.58;;;15.98;;
74245;SDS011;62601;51.044;13.788;2022-11-18T05:07:31;21.77;;;15.45;;
74245;SDS011;62601;51.044;13.788;2022-11-18T05:09:52;20.02;;;13.93;;
74245;SDS011;62601;51.044;13.788;2022-11-18T05:12:14;19.67;;;14.93;;
74245;SDS011;62601;51.044;13.788;2022-11-18T05:14:35;21.50;;;14.50;;
74245;SDS011;62601;51.044;13.788;2022-11-18T05:16:55;22.73;;;15.95;;
74245;SDS011;62601;51.044;13.788;2022-11-18T05:19:17;20.10;;;14.50;;
74245;SDS011;62601;51.044;13.788;2022-11-18T05:21:38;21.95;;;15.45;;
74245;SDS011;62601;51.044;13.788;2022-11-18T05:24:00;21.27;;;15.20;;
74245;SDS011;62601;51.044;13.788;2022-11-18T05:26:22;23.48;;;15.00;;
74245;SDS011;62601;51.044;13.788;2022-11-18T05:28:44;25.38;;;15.98;;
74245;SDS011;62601;51.044;13.788;2022-11-18T05:31:09;20.00;;;14.98;;
74245;SDS011;62601;51.044;13.788;2022-11-18T05:33:34;27.85;;;15.13;;
74245;SDS011;62601;51.044;13.788;2022-11-18T05:35:55;20.15;;;14.23;;
74245;SDS011;62601;51.044;13.788;2022-11-18T05:38:16;20.85;;;14.07;;
74245;SDS011;62601;51.044;13.788;2022-11-18T05:40:38;20.55;;;14.55;;
74245;SDS011;62601;51.044;13.788;2022-11-18T05:43:02;19.70;;;13.82;;
74245;SDS011;62601;51.044;13.788;2022-11-18T05:45:23;19.48;;;14.30;;
74245;SDS011;62601;51.044;13.788;2022-11-18T05:47:44;22.48;;;14.18;;
74245;SDS011;62601;51.044;13.788;2022-11-18T05:50:06;25.13;;;15.90;;
74245;SDS011;62601;51.044;13.788;2022-11-18T05:52:28;18.65;;;14.07;;
74245;SDS011;62601;51.044;13.788;2022-11-18T05:54:49;23.58;;;14.40;;
74245;SDS011;62601;51.044;13.788;2022-11-18T05:57:10;21.60;;;15.13;;
74245;SDS011;62601;51.044;13.788;2022-11-18T05:59:32;19.77;;;14.00;;
74245;SDS011;62601;51.044;13.788;2022-11-18T06:01:56;20.23;;;13.57;;
74245;SDS011;62601;51.044;13.788;2022-11-18T06:04:21;20.05;;;14.00;;
74245;SDS011;62601;51.044;13.788;2022-11-18T06:06:52;25.05;;;13.30;;
74245;SDS011;62601;51.044;13.788;2022-11-18T06:09:25;21.10;;;15.07;;
74245;SDS011;62601;51.044;13.788;2022-11-18T06:11:52;21.98;;;14.65;;
74245;SDS011;62601;51.044;13.788;2022-11-18T06:14:16;20.33;;;13.77;;
74245;SDS011;62601;51.044;13.788;2022-11-18T06:16:39;20.83;;;14.15;;
74245;SDS011;62601;51.044;13.788;2022-11-18T06:19:13;19.63;;;13.75;;
74245;SDS011;62601;51.044;13.788;2022-11-18T06:21:38;19.90;;;13.35;;
74245;SDS011;62601;51.044;13.788;2022-11-18T06:24:01;20.70;;;12.60;;
74245;SDS011;62601;51.044;13.788;2022-11-18T06:26:22;20.60;;;14.20;;
74245;SDS011;62601;51.044;13.788;2022-11-18T06:28:44;22.35;;;14.30;;
74245;SDS011;62601;51.044;13.788;2022-11-18T06:31:15;17.73;;;13.02;;
74245;SDS011;62601;51.044;13.788;2022-11-18T06:33:40;18.38;;;13.38;;
74245;SDS011;62601;51.044;13.788;2022-11-18T06:36:02;20.55;;;13.00;;
74245;SDS011;62601;51.044;13.788;2022-11-18T06:38:22;18.02;;;11.88;;
74245;SDS011;62601;51.044;13.788;2022-11-18T06:40:43;20.15;;;12.95;;
74245;SDS011;62601;51.044;13.788;2022-11-18T06:43:06;16.42;;;11.48;;
74245;SDS011;62601;51.044;13.788;2022-11-18T06:45:27;17.35;;;12.10;;
74245;SDS011;62601;51.044;13.788;2022-11-18T06:47:47;18.50;;;12.80;;
74245;SDS011;62601;51.044;13.788;2022-11-18T06:50:07;19.30;;;12.30;;
74245;SDS011;62601;51.044;13.788;2022-11-18T06:52:27;18.52;;;13.00;;
74245;SDS011;62601;51.044;13.788;2022-11-18T06:54:47;16.35;;;11.88;;
74245;SDS011;62601;51.044;13.788;2022-11-18T06:57:07;20.15;;;13.60;;
74245;SDS011;62601;51.044;13.788;2022-11-18T06:59:27;18.35;;;12.88;;
74245;SDS011;62601;51.044;13.788;2022-11-18T07:01:48;20.40;;;12.80;;
74245;SDS011;62601;51.044;13.788;2022-11-18T07:04:08;16.90;;;11.25;;
74245;SDS011;62601;51.044;13.788;2022-11-18T07:06:29;17.20;;;12.52;;
74245;SDS011;62601;51.044;13.788;2022-11-18T07:08:50;14.73;;;11.45;;
74245;SDS011;62601;51.044;13.788;2022-11-18T07:11:11;16.90;;;11.40;;
74245;SDS011;62601;51.044;13.788;2022-11-18T07:13:32;15.32;;;11.30;;
74245;SDS011;62601;51.044;13.788;2022-11-18T07:15:52;16.08;;;11.23;;
74245;SDS011;62601;51.044;13.788;2022-11-18T07:18:12;16.83;;;11.15;;
74245;SDS011;62601;51.044;13.788;2022-11-18T07:20:33;14.43;;;10.20;;
74245;SDS011;62601;51.044;13.788;2022-11-18T07:22:53;16.83;;;11.85;;
74245;SDS011;62601;51.044;13.788;2022-11-18T07:25:13;14.35;;;10.90;;
74245;SDS011;62601;51.044;13.788;2022-11-18T07:27:33;13.80;;;10.10;;
74245;SDS011;62601;51.044;13.788;2022-11-18T07:29:53;16.38;;;11.07;;
74245;SDS011;62601;51.044;13.788;2022-11-18T07:32:13;16.48;;;10.77;;
74245;SDS011;62601;51.044;13.788;2022-11-18T07:34:33;16.08;;;10.77;;
74245;SDS011;62601;51.044;13.788;2022-11-18T07:36:53;15.65;;;11.23;;
74245;SDS011;62601;51.044;13.788;2022-11-18T07:39:13;18.23;;;12.15;;
74245;SDS011;62601;51.044;13.788;2022-11-18T07:41:34;13.93;;;10.18;;
74245;SDS011;62601;51.044;13.788;2022-11-18T07:43:54;14.02;;;10.35;;
74245;SDS011;62601;51.044;13.788;2022-11-18T07:46:22;16.42;;;11.07;;
74245;SDS011;62601;51.044;13.788;2022-11-18T07:48:43;15.55;;;10.32;;
74245;SDS011;62601;51.044;13.788;2022-11-18T07:51:03;17.27;;;11.18;;
74245;SDS011;62601;51.044;13.788;2022-11-18T07:53:24;16.65;;;11.40;;
74245;SDS011;62601;51.044;13.788;2022-11-18T07:55:44;14.90;;;9.60;;
74245;SDS011;62601;51.044;13.788;2022-11-18T07:58:04;18.77;;;11.38;;
74245;SDS011;62601;51.044;13.788;2022-11-18T08:00:24;13.98;;;9.70;;
74245;SDS011;62601;51.044;13.788;2022-11-18T08:02:48;14.20;;;10.02;;
74245;SDS011;62601;51.044;13.788;2022-11-18T08:05:09;12.77;;;9.45;;
74245;SDS011;62601;51.044;13.788;2022-11-18T08:07:29;13.07;;;9.45;;
74245;SDS011;62601;51.044;13.788;2022-11-18T08:09:49;15.20;;;9.45;;
74245;SDS011;62601;51.044;13.788;2022-11-18T08:12:09;17.27;;;10.07;;
74245;SDS011;62601;51.044;13.788;2022-11-18T08:14:29;14.70;;;9.90;;
74245;SDS011;62601;51.044;13.788;2022-11-18T08:16:49;14.35;;;10.07;;
74245;SDS011;62601;51.044;13.788;2022-11-18T08:19:11;13.13;;;9.27;;
74245;SDS011;62601;51.044;13.788;2022-11-18T08:21:31;19.50;;;10.70;;
74245;SDS011;62601;51.044;13.788;2022-11-18T08:23:52;14.82;;;10.50;;
74245;SDS011;62601;51.044;13.788;2022-11-18T08:26:13;13.10;;;9.50;;
74245;SDS011;62601;51.044;13.788;2022-11-18T08:28:33;15.25;;;10.10;;
74245;SDS011;62601;51.044;13.788;2022-11-18T08:30:53;14.00;;;10.35;;
74245;SDS011;62601;51.044;13.788;2022-11-18T08:33:13;17.35;;;12.45;;
74245;SDS011;62601;51.044;13.788;2022-11-18T08:35:34;15.75;;;10.95;;
74245;SDS011;62601;51.044;13.788;2022-11-18T08:37:54;19.13;;;12.57;;
74245;SDS011;62601;51.044;13.788;2022-11-18T08:40:14;14.90;;;10.80;;
74245;SDS011;62601;51.044;13.788;2022-11-18T08:42:34;15.18;;;11.68;;
74245;SDS011;62601;51.044;13.788;2022-11-18T08:44:54;15.88;;;11.75;;
74245;SDS011;62601;51.044;13.788;2022-11-18T08:47:14;17.88;;;11.85;;
74245;SDS011;62601;51.044;13.788;2022-11-18T08:49:34;20.17;;;13.05;;
74245;SDS011;62601;51.044;13.788;2022-11-18T08:51:55;16.33;;;12.43;;
74245;SDS011;62601;51.044;13.788;2022-11-18T08:54:16;15.77;;;12.20;;
74245;SDS011;62601;51.044;13.788;2022-11-18T08:56:36;20.92;;;13.80;;
74245;SDS011;62601;51.044;13.788;2022-11-18T08:58:56;20.30;;;13.32;;
74245;SDS011;62601;51.044;13.788;2022-11-18T09:01:16;23.48;;;15.43;;
74245;SDS011;62601;51.044;13.788;2022-11-18T09:03:36;22.25;;;15.52;;
74245;SDS011;62601;51.044;13.788;2022-11-18T09:06:16;21.02;;;14.80;;
74245;SDS011;62601;51.044;13.788;2022-11-18T09:08:37;26.05;;;16.15;;
74245;SDS011;62601;51.044;13.788;2022-11-18T09:10:57;21.20;;;14.73;;
74245;SDS011;62601;51.044;13.788;2022-11-18T09:13:17;27.55;;;15.13;;
74245;SDS011;62601;51.044;13.788;2022-11-18T09:15:37;22.33;;;14.05;;
74245;SDS011;62601;51.044;13.788;2022-11-18T09:17:59;24.85;;;15.38;;
74245;SDS011;62601;51.044;13.788;2022-11-18T09:20:19;23.33;;;14.27;;
74245;SDS011;62601;51.044;13.788;2022-11-18T09:22:39;19.85;;;13.82;;
74245;SDS011;62601;51.044;13.788;2022-11-18T09:24:59;20.98;;;13.73;;
74245;SDS011;62601;51.044;13.788;2022-11-18T09:27:19;20.25;;;13.32;;
74245;SDS011;62601;51.044;13.788;2022-11-18T09:29:40;19.90;;;13.20;;
74245;SDS011;62601;51.044;13.788;2022-11-18T09:32:00;20.15;;;13.40;;
74245;SDS011;62601;51.044;13.788;2022-11-18T09:34:21;21.25;;;15.55;;
74245;SDS011;62601;51.044;13.788;2022-11-18T09:36:41;20.15;;;13.35;;
74245;SDS011;62601;51.044;13.788;2022-11-18T09:39:01;21.55;;;14.50;;
74245;SDS011;62601;51.044;13.788;2022-11-18T09:49:03;22.48;;;15.43;;
74245;SDS011;62601;51.044;13.788;2022-11-18T09:51:28;26.23;;;17.10;;
74245;SDS011;62601;51.044;13.788;2022-11-18T09:53:54;23.98;;;16.08;;
74245;SDS011;62601;51.044;13.788;2022-11-18T09:56:15;25.40;;;16.70;;
74245;SDS011;62601;51.044;13.788;2022-11-18T09:58:37;24.98;;;16.90;;
74245;SDS011;62601;51.044;13.788;2022-11-18T10:00:59;23.77;;;16.33;;
74245;SDS011;62601;51.044;13.788;2022-11-18T10:03:30;25.33;;;16.27;;
74245;SDS011;62601;51.044;13.788;2022-11-18T10:10:53;24.95;;;16.33;;
74245;SDS011;62601;51.044;13.788;2022-11-18T10:13:20;24.38;;;15.52;;
74245;SDS011;62601;51.044;13.788;2022-11-18T10:15:44;25.20;;;16.48;;
74245;SDS011;62601;51.044;13.788;2022-11-18T10:18:29;22.83;;;15.82;;
74245;SDS011;62601;51.044;13.788;2022-11-18T10:21:14;26.67;;;16.58;;
74245;SDS011;62601;51.044;13.788;2022-11-18T10:26:33;29.05;;;16.75;;
74245;SDS011;62601;51.044;13.788;2022-11-18T10:28:56;26.67;;;17.45;;
74245;SDS011;62601;51.044;13.788;2022-11-18T10:31:17;24.23;;;15.40;;
74245;SDS011;62601;51.044;13.788;2022-11-18T10:33:39;23.00;;;14.65;;
74245;SDS011;62601;51.044;13.788;2022-11-18T10:38:39;23.70;;;15.38;;
74245;SDS011;62601;51.044;13.788;2022-11-18T10:41:03;25.02;;;16.05;;
74245;SDS011;62601;51.044;13.788;2022-11-18T10:46:14;21.27;;;13.88;;
74245;SDS011;62601;51.044;13.788;2022-11-18T10:48:38;17.10;;;10.73;;
74245;SDS011;62601;51.044;13.788;2022-11-18T10:50:59;15.73;;;10.65;;
74245;SDS011;62601;51.044;13.788;2022-11-18T10:53:41;15.52;;;10.20;;
74245;SDS011;62601;51.044;13.788;2022-11-18T10:56:05;16.63;;;10.63;;
74245;SDS011;62601;51.044;13.788;2022-11-18T10:58:30;17.08;;;10.88;;
74245;SDS011;62601;51.044;13.788;2022-11-18T11:01:05;16.70;;;11.35;;
74245;SDS011;62601;51.044;13.788;2022-11-18T11:03:34;18.50;;;10.55;;
74245;SDS011;62601;51.044;13.788;2022-11-18T11:08:34;15.70;;;10.68;;
74245;SDS011;62601;51.044;13.788;2022-11-18T11:11:05;18.10;;;11.93;;
74245;SDS011;62601;51.044;13.788;2022-11-18T11:13:27;20.63;;;12.82;;
74245;SDS011;62601;51.044;13.788;2022-11-18T11:16:00;19.58;;;12.27;;
74245;SDS011;62601;51.044;13.788;2022-11-18T11:18:24;20.00;;;12.60;;
74245;SDS011;62601;51.044;13.788;2022-11-18T11:20:46;20.65;;;13.65;;
74245;SDS011;62601;51.044;13.788;2022-11-18T11:23:11;19.08;;;12.40;;
74245;SDS011;62601;51.044;13.788;2022-11-18T11:25:56;20.48;;;13.30;;
74245;SDS011;62601;51.044;13.788;2022-11-18T11:28:25;18.00;;;12.30;;
74245;SDS011;62601;51.044;13.788;2022-11-18T11:30:54;18.63;;;12.55;;
74245;SDS011;62601;51.044;13.788;2022-11-18T11:33:25;19.48;;;13.43;;
74245;SDS011;62601;51.044;13.788;2022-11-18T11:57:04;26.80;;;17.75;;
74245;SDS011;62601;51.044;13.788;2022-11-18T12:01:51;26.67;;;17.45;;
74245;SDS011;62601;51.044;13.788;2022-11-18T12:06:52;26.38;;;16.92;;
74245;SDS011;62601;51.044;13.788;2022-11-18T12:09:17;24.63;;;17.08;;
74245;SDS011;62601;51.044;13.788;2022-11-18T12:11:43;27.15;;;18.02;;
74245;SDS011;62601;51.044;13.788;2022-11-18T12:19:17;27.00;;;18.00;;
74245;SDS011;62601;51.044;13.788;2022-11-18T12:26:44;29.30;;;18.77;;
74245;SDS011;62601;51.044;13.788;2022-11-18T12:29:21;25.85;;;17.95;;
74245;SDS011;62601;51.044;13.788;2022-11-18T12:32:13;25.63;;;17.20;;
74245;SDS011;62601;51.044;13.788;2022-11-18T12:36:44;24.05;;;16.75;;
74245;SDS011;62601;51.044;13.788;2022-11-18T12:41:58;26.00;;;17.15;;
74245;SDS011;62601;51.044;13.788;2022-11-18T12:44:23;25.75;;;17.30;;
74245;SDS011;62601;51.044;13.788;2022-11-18T12:46:51;26.17;;;18.23;;
74245;SDS011;62601;51.044;13.788;2022-11-18T12:51:44;31.17;;;18.73;;
74245;SDS011;62601;51.044;13.788;2022-11-18T12:56:43;30.65;;;20.20;;
74245;SDS011;62601;51.044;13.788;2022-11-18T12:59:10;32.92;;;20.90;;
74245;SDS011;62601;51.044;13.788;2022-11-18T13:01:32;33.97;;;21.80;;
74245;SDS011;62601;51.044;13.788;2022-11-18T13:06:36;33.83;;;22.48;;
74245;SDS011;62601;51.044;13.788;2022-11-18T13:09:03;36.53;;;22.02;;
74245;SDS011;62601;51.044;13.788;2022-11-18T13:11:24;32.83;;;21.15;;
74245;SDS011;62601;51.044;13.788;2022-11-18T13:13:48;34.08;;;19.75;;
74245;SDS011;62601;51.044;13.788;2022-11-18T13:16:23;33.22;;;20.85;;
74245;SDS011;62601;51.044;13.788;2022-11-18T13:18:49;29.13;;;19.52;;
74245;SDS011;62601;51.044;13.788;2022-11-18T13:21:19;33.85;;;20.90;;
74245;SDS011;62601;51.044;13.788;2022-11-18T13:23:43;32.03;;;20.30;;
74245;SDS011;62601;51.044;13.788;2022-11-18T13:33:49;26.48;;;18.27;;
74245;SDS011;62601;51.044;13.788;2022-11-18T13:36:21;32.90;;;19.70;;
74245;SDS011;62601;51.044;13.788;2022-11-18T13:39:04;28.38;;;18.92;;
74245;SDS011;62601;51.044;13.788;2022-11-18T13:41:26;26.95;;;17.70;;
74245;SDS011;62601;51.044;13.788;2022-11-18T13:43:53;29.38;;;18.67;;
74245;SDS011;62601;51.044;13.788;2022-11-18T13:46:18;29.05;;;18.20;;
74245;SDS011;62601;51.044;13.788;2022-11-18T13:48:44;28.98;;;18.00;;
74245;SDS011;62601;51.044;13.788;2022-11-18T13:51:07;28.05;;;18.25;;
74245;SDS011;62601;51.044;13.788;2022-11-18T13:53:37;28.42;;;18.42;;
74245;SDS011;62601;51.044;13.788;2022-11-18T13:58:42;33.10;;;18.77;;
74245;SDS011;62601;51.044;13.788;2022-11-18T14:01:05;29.65;;;18.80;;
74245;SDS011;62601;51.044;13.788;2022-11-18T14:05:57;27.80;;;18.80;;
74245;SDS011;62601;51.044;13.788;2022-11-18T14:08:39;28.15;;;18.42;;
74245;SDS011;62601;51.044;13.788;2022-11-18T14:11:00;26.02;;;18.38;;
74245;SDS011;62601;51.044;13.788;2022-11-18T14:15:41;28.95;;;19.45;;
74245;SDS011;62601;51.044;13.788;2022-11-18T14:18:01;29.15;;;18.58;;
74245;SDS011;62601;51.044;13.788;2022-11-18T14:20:22;29.38;;;19.10;;
74245;SDS011;62601;51.044;13.788;2022-11-18T14:22:44;30.05;;;20.10;;
74245;SDS011;62601;51.044;13.788;2022-11-18T14:25:21;28.63;;;19.98;;
74245;SDS011;62601;51.044;13.788;2022-11-18T14:27:46;29.17;;;19.60;;
74245;SDS011;62601;51.044;13.788;2022-11-18T14:35:26;31.40;;;21.05;;
74245;SDS011;62601;51.044;13.788;2022-11-18T14:37:47;32.17;;;20.70;;
74245;SDS011;62601;51.044;13.788;2022-11-18T14:40:11;31.10;;;21.15;;
74245;SDS011;62601;51.044;13.788;2022-11-18T14:42:33;30.20;;;20.63;;
74245;SDS011;62601;51.044;13.788;2022-11-18T14:44:55;32.33;;;22.63;;
74245;SDS011;62601;51.044;13.788;2022-11-18T14:47:23;34.63;;;21.42;;
74245;SDS011;62601;51.044;13.788;2022-11-18T14:49:49;31.52;;;20.63;;
74245;SDS011;62601;51.044;13.788;2022-11-18T14:52:10;31.75;;;21.70;;
74245;SDS011;62601;51.044;13.788;2022-11-18T14:54:31;36.90;;;21.40;;
74245;SDS011;62601;51.044;13.788;2022-11-18T14:56:53;30.27;;;22.02;;
74245;SDS011;62601;51.044;13.788;2022-11-18T14:59:16;31.05;;;22.52;;
74245;SDS011;62601;51.044;13.788;2022-11-18T15:01:38;29.08;;;21.00;;
74245;SDS011;62601;51.044;13.788;2022-11-18T15:03:59;34.15;;;22.23;;
74245;SDS011;62601;51.044;13.788;2022-11-18T15:06:21;32.30;;;21.73;;
74245;SDS011;62601;51.044;13.788;2022-11-18T15:08:43;32.63;;;21.60;;
74245;SDS011;62601;51.044;13.788;2022-11-18T15:11:03;32.55;;;22.70;;
74245;SDS011;62601;51.044;13.788;2022-11-18T15:13:24;31.70;;;20.92;;
74245;SDS011;62601;51.044;13.788;2022-11-18T15:15:45;31.80;;;21.20;;
74245;SDS011;62601;51.044;13.788;2022-11-18T15:18:07;33.50;;;21.45;;
74245;SDS011;62601;51.044;13.788;2022-11-18T15:20:28;29.98;;;20.92;;
74245;SDS011;62601;51.044;13.788;2022-11-18T15:22:50;31.73;;;22.10;;
74245;SDS011;62601;51.044;13.788;2022-11-18T15:25:11;29.98;;;21.58;;
74245;SDS011;62601;51.044;13.788;2022-11-18T15:27:33;35.97;;;21.55;;
74245;SDS011;62601;51.044;13.788;2022-11-18T15:29:53;35.00;;;22.42;;
74245;SDS011;62601;51.044;13.788;2022-11-18T15:32:13;36.17;;;21.63;;
74245;SDS011;62601;51.044;13.788;2022-11-18T15:34:33;31.48;;;20.73;;
74245;SDS011;62601;51.044;13.788;2022-11-18T15:36:53;33.10;;;21.20;;
74245;SDS011;62601;51.044;13.788;2022-11-18T15:39:14;33.53;;;21.23;;
74245;SDS011;62601;51.044;13.788;2022-11-18T15:41:36;33.67;;;22.10;;
74245;SDS011;62601;51.044;13.788;2022-11-18T15:43:58;33.00;;;21.50;;
74245;SDS011;62601;51.044;13.788;2022-11-18T15:46:20;31.02;;;21.25;;